Latest Weather Observations for Grafton AgRS

IDN60801

Issued at 5:02 pm EDT Monday 18 February 2019 (issued every 10 minutes, with the page automatically refreshed every 10 minutes)

About weather observations | Map of weather stations | Latest weather observations for NSW | Other Formats
Station Details ID: 058077 Name: GRAFTON RESEARCH STN Lat: -29.62 Lon: 152.96 Height: 25.0 m
Data from the previous 72 hours. | See also: Recent months at Grafton AgRS
Date/Time
EDT
Temp
°C
App
Temp
°C
Dew
Point
°C
Rel
Hum
%
Delta-T
°C
Wind Press
QNH
hPa
Press
MSL
hPa
Rain since
9am
mm
Dir  Spd
km/h
Gust
km/h
Spd
kts
Gust
kts
18/05:00pm 30.1 29.2 16.9 45 8.3 ENE 17 28 9 15 - - 0.0
18/04:30pm 30.7 29.7 16.7 43 8.8 ENE 17 32 9 17 - - 0.0
18/04:00pm 31.2 29.9 16.8 42 9.1 ENE 19 32 10 17 - - 0.0
18/03:30pm 31.9 31.2 17.4 42 9.3 NE 17 28 9 15 - - 0.0
18/03:00pm 32.2 31.4 16.1 38 10.1 ENE 15 24 8 13 - - 0.0
18/02:30pm 32.0 30.9 16.3 39 9.9 E 17 26 9 14 - - 0.0
18/02:00pm 31.6 30.4 16.0 39 9.7 ESE 17 26 9 14 - - 0.0
18/01:30pm 31.1 30.2 15.9 40 9.5 E 15 24 8 13 - - 0.0
18/01:00pm 30.8 29.8 15.6 39 9.4 ESE 15 28 8 15 - - 0.0
18/12:30pm 30.3 29.8 16.0 42 8.9 ESE 13 22 7 12 - - 0.0
18/12:00pm 29.7 29.0 16.5 45 8.3 SE 15 22 8 12 - - 0.0
18/11:30am 27.6 28.3 16.2 49 7.0 SE 7 11 4 6 - - 0.0
18/11:00am 27.9 29.0 17.1 51 6.8 NNW 7 11 4 6 - - 0.0
18/10:30am 26.5 27.4 16.7 55 6.1 WNW 7 13 4 7 - - 0.0
18/10:00am 26.7 28.1 18.6 61 5.2 SE 9 13 5 7 - - 0.0
18/09:30am 25.4 27.1 18.6 66 4.3 SW 7 11 4 6 - - 0.0
18/09:00am 23.8 25.5 18.4 72 3.4 SSW 7 9 4 5 - - 0.0
18/08:30am 22.3 24.0 18.5 79 2.4 SSW 7 9 4 5 - - 0.0
18/08:00am 20.5 22.1 17.9 85 1.6 W 6 7 3 4 - - 0.0
18/07:30am 19.0 20.5 17.7 92 0.8 W 6 7 3 4 - - 0.0
18/07:00am 17.8 18.8 16.8 94 0.6 WNW 7 9 4 5 - - 0.0
18/06:30am 17.6 18.5 16.5 93 0.7 WNW 7 9 4 5 - - 0.0
18/06:00am 18.2 20.6 16.9 92 0.8 CALM 0 2 0 1 - - 0.0
18/05:30am 18.5 19.3 17.2 92 0.8 NW 9 11 5 6 - - 0.0
18/05:00am 18.6 19.9 17.1 91 0.9 NW 6 7 3 4 - - 0.0
18/04:30am 18.8 20.2 17.3 91 0.9 NW 6 9 3 5 - - 0.0
18/04:00am 18.8 20.9 17.1 90 1.0 NNW 2 7 1 4 - - 0.0
18/03:30am 19.3 21.4 17.3 88 1.2 W 2 6 1 3 - - 0.0
18/03:00am 19.8 21.1 17.6 87 1.3 WNW 7 9 4 5 - - 0.0
18/02:30am 19.6 21.0 17.7 89 1.2 WNW 7 9 4 5 - - 0.0
18/02:00am 19.7 21.6 17.7 88 1.2 WNW 4 7 2 4 - - 0.0
18/01:30am 20.0 22.8 18.0 88 1.2 CALM 0 0 0 0 - - 0.0
18/01:00am 20.3 23.1 17.9 86 1.5 CALM 0 0 0 0 - - 0.0
18/12:30am 20.9 23.8 18.3 85 1.6 CALM 0 0 0 0 - - 0.0
18/12:00am 21.1 23.9 17.9 82 2.0 CALM 0 0 0 0 - - 0.0
 
Date/Time
EDT
Temp
°C
App
Temp
°C
Dew
Point
°C
Rel
Hum
%
Delta-T
°C
Wind Press
QNH
hPa
Press
MSL
hPa
Rain since
9am
mm
Dir  Spd
km/h
Gust
km/h
Spd
kts
Gust
kts
17/11:30pm 21.0 23.7 17.8 82 2.0 CALM 0 0 0 0 - - 0.0
17/11:00pm 20.9 23.6 17.7 82 2.0 CALM 0 0 0 0 - - 0.0
17/10:30pm 20.9 23.4 17.3 80 2.2 CALM 0 0 0 0 - - 0.0
17/10:00pm 21.3 23.8 17.3 78 2.5 CALM 0 0 0 0 - - 0.0
17/09:30pm 21.9 24.5 17.5 76 2.7 CALM 0 0 0 0 - - 0.0
17/09:00pm 22.5 25.1 17.4 73 3.2 CALM 0 0 0 0 - - 0.0
17/08:30pm 23.0 25.1 17.2 70 3.6 NE 2 7 1 4 - - 0.0
17/08:00pm 23.7 24.4 17.0 66 4.1 ENE 9 11 5 6 - - 0.0
17/07:30pm 24.8 24.4 16.2 58 5.3 E 13 22 7 12 - - 0.0
17/07:00pm 26.1 25.2 15.8 53 6.3 E 15 28 8 15 - - 0.0
17/06:30pm 27.3 25.8 15.3 48 7.3 E 17 24 9 13 - - 0.0
17/06:00pm 28.0 25.9 15.3 46 7.7 E 20 30 11 16 - - 0.0
17/05:30pm 28.8 27.7 16.4 47 7.7 E 17 24 9 13 - - 0.0
17/05:00pm 29.3 27.8 15.4 42 8.5 E 17 28 9 15 - - 0.0
17/04:30pm 29.7 28.1 15.0 40 9.0 ENE 17 28 9 15 - - 0.0
17/04:00pm 30.9 29.4 15.3 38 9.6 ENE 17 35 9 19 - - 0.0
17/03:30pm 30.5 29.1 14.6 38 9.7 NE 15 26 8 14 - - 0.0
17/03:00pm 31.0 28.5 14.2 36 10.2 E 20 32 11 17 - - 0.0
17/02:30pm 32.4 31.0 14.5 33 11.0 ENE 15 26 8 14 - - 0.0
17/02:00pm 30.8 29.2 14.0 36 10.2 ESE 15 32 8 17 - - 0.0
17/01:30pm 30.5 30.4 16.1 41 9.0 ENE 11 20 6 11 - - 0.0
17/01:00pm 30.3 29.5 15.2 40 9.3 E 13 19 7 10 - - 0.0
17/12:30pm 30.0 29.5 14.9 39 9.2 ESE 11 20 6 11 - - 0.0
17/12:00pm 30.3 31.0 17.0 44 8.4 ESE 9 17 5 9 - - 0.0
17/11:30am 29.4 29.7 15.9 44 8.4 ESE 9 19 5 10 - - 0.0
17/11:00am 28.3 28.9 15.9 47 7.6 N 7 13 4 7 - - 0.0
17/10:30am 26.7 26.4 15.4 50 6.9 SE 11 15 6 8 - - 0.0
17/10:00am 26.9 28.2 17.1 55 6.1 W 6 11 3 6 - - 0.0
17/09:30am 25.5 26.5 16.9 59 5.3 SW 7 13 4 7 - - 0.0
17/09:00am 24.5 25.4 17.5 65 4.4 WSW 9 13 5 7 - - 0.0
17/08:30am 22.4 23.1 17.1 72 3.3 WSW 9 13 5 7 - - 0.0
17/08:00am 20.3 21.1 17.3 83 1.8 W 9 13 5 7 - - 0.0
17/07:30am 18.9 19.5 16.7 87 1.3 WNW 9 11 5 6 - - 0.0
17/07:00am 17.9 18.3 16.4 91 0.9 WNW 9 11 5 6 - - 0.0
17/06:30am 18.0 18.7 16.0 88 1.2 WNW 7 9 4 5 - - 0.0
17/06:00am 18.2 18.9 16.2 88 1.2 WNW 7 11 4 6 - - 0.0
17/05:30am 18.8 19.6 16.4 86 1.4 WNW 7 9 4 5 - - 0.0
17/05:00am 18.8 19.7 16.6 87 1.3 W 7 9 4 5 - - 0.0
17/04:30am 18.9 19.8 16.5 86 1.4 WNW 7 9 4 5 - - 0.0
17/04:00am 19.3 20.2 16.5 84 1.7 WNW 7 9 4 5 - - 0.0
17/03:30am 19.4 20.3 16.6 84 1.7 W 7 9 4 5 - - 0.0
17/03:00am 19.4 20.4 16.8 85 1.6 WNW 7 9 4 5 - - 0.0
17/02:30am 19.3 20.2 16.7 85 1.6 W 7 9 4 5 - - 0.0
17/02:00am 18.8 19.6 16.4 86 1.4 WNW 7 11 4 6 - - 0.0
17/01:30am 19.4 20.3 16.6 84 1.7 W 7 9 4 5 - - 0.0
17/01:00am 19.4 20.3 16.1 81 2.0 WSW 6 9 3 5 - - 0.0
17/12:30am 19.8 20.8 16.3 80 2.1 W 6 7 3 4 - - 0.0
17/12:00am 20.2 21.1 16.2 78 2.4 WSW 6 7 3 4 - - 0.0
 
Date/Time
EDT
Temp
°C
App
Temp
°C
Dew
Point
°C
Rel
Hum
%
Delta-T
°C
Wind Press
QNH
hPa
Press
MSL
hPa
Rain since
9am
mm
Dir  Spd
km/h
Gust
km/h
Spd
kts
Gust
kts
16/11:30pm 20.5 21.4 16.1 76 2.6 WSW 6 7 3 4 - - 0.0
16/11:00pm 21.0 22.1 16.6 76 2.7 WSW 6 9 3 5 - - 0.0
16/10:30pm 20.8 21.6 16.4 76 2.7 WSW 7 9 4 5 - - 0.0
16/10:00pm 20.9 22.0 16.5 76 2.7 SW 6 7 3 4 - - 0.0
16/09:30pm 20.7 21.6 16.1 75 2.8 S 6 6 3 3 - - 0.0
16/09:00pm 21.2 21.9 15.7 71 3.3 SE 6 7 3 4 - - 0.0
16/08:30pm 21.9 21.8 16.0 69 3.6 ESE 11 15 6 8 - - 0.0
16/08:00pm 22.8 22.7 15.9 65 4.2 ESE 11 17 6 9 - - 0.0
16/07:30pm 23.7 22.3 15.5 60 4.9 ESE 17 28 9 15 - - 0.0
16/07:00pm 24.8 22.7 15.1 54 5.8 ESE 20 28 11 15 - - 0.0
16/06:30pm 25.9 23.7 14.4 49 6.9 ESE 19 30 10 16 - - 0.0
16/06:00pm 27.1 24.2 14.1 44 7.8 ESE 22 30 12 16 - - 0.0
16/05:30pm 27.7 25.5 14.3 43 8.0 E 19 30 10 16 - - 0.0
16/05:00pm 27.7 24.7 13.6 42 8.4 ESE 22 33 12 18 - - 0.0
16/04:30pm 28.4 26.0 14.3 42 8.5 ESE 20 32 11 17 - - 0.0
16/04:00pm 28.2 25.4 13.3 40 8.8 E 20 32 11 17 - - 0.0
16/03:30pm 28.6 26.1 14.1 41 8.7 ESE 20 28 11 15 - - 0.0
16/03:00pm 28.4 24.6 13.5 40 8.9 SE 26 35 14 19 - - 0.0
16/02:30pm 28.6 25.7 12.9 38 9.2 ESE 20 30 11 16 - - 0.0
16/02:00pm 29.7 26.9 12.6 35 10.1 ESE 19 33 10 18 - - 0.0
16/01:30pm 30.3 27.4 12.2 33 10.6 ESE 19 28 10 15 - - 0.0
16/01:00pm 30.0 28.1 12.9 35 10.1 E 15 24 8 13 - - 0.0
16/12:30pm 29.9 27.8 13.6 36 9.8 SSE 17 24 9 13 - - 0.0
16/12:00pm 29.8 28.2 14.0 38 9.5 ESE 15 28 8 15 - - 0.0
16/11:30am 29.5 27.4 13.7 38 9.5 ESE 17 24 9 13 - - 0.0
16/11:00am 29.2 27.6 15.0 42 8.7 SE 17 26 9 14 - - 0.0
16/10:30am 28.0 26.5 15.3 46 7.7 SE 17 24 9 13 - - 0.0
16/10:00am 27.2 25.0 14.9 47 7.4 SE 20 26 11 14 - - 0.0
16/09:30am 26.0 24.2 16.0 54 6.1 SSE 20 28 11 15 - - 0.0
16/09:00am 25.1 24.0 16.3 58 5.4 SSE 17 22 9 12 - - 0.0
16/08:30am 23.9 23.7 16.7 64 4.4 S 13 19 7 10 - - 0.0
16/08:00am 21.8 22.1 15.9 69 3.5 SW 9 13 5 7 - - 0.0
16/07:30am 19.7 20.2 15.6 77 2.4 WSW 7 11 4 6 - - 0.0
16/07:00am 19.0 19.3 15.1 78 2.3 SW 7 9 4 5 - - 0.0
16/06:30am 18.9 18.8 15.0 78 2.3 SW 9 13 5 7 - - 0.0
16/06:00am 18.8 19.1 14.9 78 2.3 WSW 7 11 4 6 - - 0.0
16/05:30am 19.0 18.5 14.9 77 2.4 SW 11 13 6 7 - - 0.0
16/05:00am 19.2 19.1 14.9 76 2.5 SW 9 11 5 6 - - 0.0
16/04:30am 20.2 20.1 15.0 72 3.1 SSW 9 15 5 8 - - 0.0
16/04:00am 20.8 20.9 15.4 71 3.2 SSW 9 11 5 6 - - 0.0
16/03:30am 21.2 21.4 15.7 71 3.3 SSW 9 13 5 7 - - 0.0
16/03:00am 21.1 21.2 15.6 71 3.3 SW 9 13 5 7 - - 0.0
16/02:30am 21.5 21.3 15.6 69 3.5 SSW 11 17 6 9 - - 0.0
16/02:00am 21.3 21.5 15.8 71 3.3 SSW 9 15 5 8 - - 0.0
16/01:30am 21.1 21.0 15.9 72 3.1 SSW 11 13 6 7 - - 0.0
16/01:00am 20.9 21.4 16.5 76 2.7 SW 9 13 5 7 - - 0.0
16/12:30am 21.2 21.8 16.8 76 2.7 SW 9 13 5 7 - - 0.0
16/12:00am 20.7 21.6 16.7 78 2.4 SW 7 9 4 5 - - 0.0
 
Date/Time
EDT
Temp
°C
App
Temp
°C
Dew
Point
°C
Rel
Hum
%
Delta-T
°C
Wind Press
QNH
hPa
Press
MSL
hPa
Rain since
9am
mm
Dir  Spd
km/h
Gust
km/h
Spd
kts
Gust
kts
15/11:30pm 21.1 21.0 16.9 77 2.6 SSW 13 17 7 9 - - 0.0
15/11:00pm 22.4 22.4 16.2 68 3.8 SSE 11 15 6 8 - - 0.0
15/10:30pm 22.6 22.6 16.2 67 3.9 S 11 19 6 10 - - 0.0
15/10:00pm 22.6 22.2 16.2 67 3.9 S 13 17 7 9 - - 0.0
15/09:30pm 22.3 21.8 15.9 67 3.9 SSE 13 15 7 8 - - 0.0
15/09:00pm 22.3 20.9 15.6 66 4.0 SSE 17 26 9 14 - - 0.0
15/08:30pm 22.8 21.8 15.6 64 4.3 SE 15 20 8 11 - - 0.0
15/08:00pm 23.3 21.3 15.6 62 4.6 SSE 20 30 11 16 - - 0.0
15/07:30pm 23.1 21.1 14.9 60 4.9 SSE 19 24 10 13 - - 0.0
15/07:00pm 23.6 21.5 14.6 57 5.3 SE 19 28 10 15 - - 0.0
15/06:30pm 24.4 20.5 14.5 54 5.9 SE 28 39 15 21 - - 0.0
15/06:00pm 25.1 21.0 13.9 49 6.6 SE 28 39 15 21 - - 0.0
15/05:30pm 26.7 23.1 14.1 46 7.5 SE 26 37 14 20 - - 0.0

Other formats

Comma delimited format used in spreadsheet applications
http://www.bom.gov.au/fwo/IDN60801/IDN60801.95571.axf

JavaScript Object Notation format (JSON) in row-major order
http://www.bom.gov.au/fwo/IDN60801/IDN60801.95571.json

Data quality

Most of these data are generated automatically and are frequently updated. Quality checks on data are not normally performed. It is possible for incorrect values to appear. Refer to information at About Latest Weather Observations and please check the disclaimer before using these data.